createdAt,value
2019-06-27T00:01:42.527Z,26.50
2019-06-27T00:04:12.755Z,26.50
2019-06-27T00:06:43.509Z,26.40
2019-06-27T00:09:13.795Z,26.40
2019-06-27T00:11:43.799Z,26.30
2019-06-27T00:14:14.932Z,26.20
2019-06-27T00:16:45.216Z,26.20
2019-06-27T00:19:15.397Z,26.10
2019-06-27T00:21:45.553Z,26.20
2019-06-27T00:24:15.658Z,26.10
2019-06-27T00:26:56.601Z,26.10
2019-06-27T00:29:17.594Z,26.00
2019-06-27T00:31:47.677Z,26.00
2019-06-27T00:34:17.839Z,25.90
2019-06-27T00:36:47.912Z,25.80
2019-06-27T00:39:17.830Z,25.80
2019-06-27T00:41:47.900Z,25.60
2019-06-27T00:44:18.067Z,25.60
2019-06-27T00:46:48.138Z,25.60
2019-06-27T00:49:18.208Z,25.60
2019-06-27T00:51:48.347Z,25.40
2019-06-27T00:54:18.481Z,25.30
2019-06-27T00:56:48.635Z,25.30
2019-06-27T00:59:18.643Z,25.30
2019-06-27T01:01:48.662Z,25.30
2019-06-27T01:04:18.808Z,25.30
2019-06-27T01:06:48.768Z,25.20
2019-06-27T01:09:18.909Z,25.20
2019-06-27T01:11:49.259Z,25.20
2019-06-27T01:14:19.513Z,25.20
2019-06-27T01:16:49.672Z,25.20
2019-06-27T01:19:19.686Z,25.10
2019-06-27T01:21:50.872Z,25.10
2019-06-27T01:24:20.867Z,25.00
2019-06-27T01:26:51.065Z,25.00
2019-06-27T01:29:21.006Z,24.80
2019-06-27T01:31:50.952Z,24.80
2019-06-27T01:34:21.028Z,24.70
2019-06-27T01:36:51.077Z,24.70
2019-06-27T01:39:21.264Z,24.60
2019-06-27T01:41:52.567Z,24.60
2019-06-27T01:44:39.613Z,24.50
2019-06-27T01:47:09.880Z,24.50
2019-06-27T01:49:39.879Z,24.50
2019-06-27T01:52:09.958Z,24.50
2019-06-27T01:54:39.920Z,24.40
2019-06-27T01:57:09.835Z,24.40
2019-06-27T01:59:39.848Z,24.40
2019-06-27T02:02:09.895Z,24.30
2019-06-27T02:04:40.089Z,24.30
2019-06-27T02:07:10.439Z,24.30
2019-06-27T02:09:41.802Z,24.20
2019-06-27T02:12:12.073Z,24.10
2019-06-27T02:14:43.042Z,24.00
2019-06-27T02:17:13.423Z,24.00
2019-06-27T02:19:43.823Z,23.90
2019-06-27T02:22:13.922Z,23.80
2019-06-27T02:24:43.949Z,23.90
2019-06-27T02:27:14.327Z,23.90
2019-06-27T02:29:44.602Z,23.90
2019-06-27T02:32:14.746Z,23.80
2019-06-27T02:34:44.830Z,23.70
2019-06-27T02:37:14.830Z,23.60
2019-06-27T02:39:44.917Z,23.60
2019-06-27T02:42:14.986Z,23.60
2019-06-27T02:44:45.285Z,23.50
2019-06-27T02:47:15.744Z,23.50
2019-06-27T02:49:50.001Z,23.50
2019-06-27T02:52:18.832Z,23.50
2019-06-27T02:54:48.861Z,23.40
2019-06-27T02:57:18.982Z,23.40
2019-06-27T02:59:49.107Z,23.40
2019-06-27T03:02:19.518Z,23.30
2019-06-27T03:04:49.695Z,23.30
2019-06-27T03:07:20.088Z,23.20
2019-06-27T03:09:50.381Z,23.00
2019-06-27T03:12:20.530Z,23.00
2019-06-27T03:14:50.557Z,23.00
2019-06-27T03:17:20.629Z,22.90
2019-06-27T03:19:50.689Z,22.90
2019-06-27T03:22:20.671Z,22.90
2019-06-27T03:24:50.780Z,22.80
2019-06-27T03:27:21.034Z,22.70
2019-06-27T03:29:51.083Z,22.60
2019-06-27T03:32:22.240Z,22.60
2019-06-27T03:34:53.573Z,22.60
2019-06-27T03:37:23.562Z,22.50
2019-06-27T03:39:53.648Z,22.50
2019-06-27T03:42:23.784Z,22.50
2019-06-27T03:44:54.107Z,22.40
2019-06-27T03:47:24.420Z,22.40
2019-06-27T03:49:54.554Z,22.20
2019-06-27T03:52:24.619Z,22.30
2019-06-27T03:54:54.804Z,22.30
2019-06-27T03:57:25.128Z,22.30
2019-06-27T03:59:55.329Z,22.20
2019-06-27T04:02:25.719Z,22.10
2019-06-27T04:04:55.985Z,22.10
2019-06-27T04:07:26.270Z,22.10
2019-06-27T04:09:56.535Z,22.10
2019-06-27T04:12:26.591Z,22.00
2019-06-27T04:14:57.199Z,22.00
2019-06-27T04:17:27.399Z,22.00
2019-06-27T04:19:57.565Z,21.90
2019-06-27T04:22:27.896Z,21.80
2019-06-27T04:24:58.078Z,21.80
2019-06-27T04:27:28.274Z,21.70
2019-06-27T04:29:58.334Z,21.60
2019-06-27T04:32:28.211Z,21.60
2019-06-27T04:34:58.487Z,21.50
2019-06-27T04:37:28.709Z,21.50
2019-06-27T04:39:59.856Z,21.60
2019-06-27T04:42:31.070Z,21.60
2019-06-27T04:45:01.380Z,21.60
2019-06-27T04:47:31.549Z,21.60
2019-06-27T04:50:02.022Z,21.50
2019-06-27T04:52:32.111Z,21.50
2019-06-27T04:55:03.914Z,21.50
2019-06-27T04:57:34.540Z,21.50
2019-06-27T05:00:05.704Z,21.50
2019-06-27T05:02:36.794Z,21.50
2019-06-27T05:05:06.947Z,21.50
2019-06-27T05:07:37.676Z,21.60
2019-06-27T05:10:09.343Z,21.40
2019-06-27T05:12:39.437Z,21.40
2019-06-27T05:15:09.720Z,21.30
2019-06-27T05:17:39.867Z,21.30
2019-06-27T05:20:11.295Z,21.30
2019-06-27T05:22:41.443Z,21.30
2019-06-27T05:25:11.780Z,21.30
2019-06-27T05:27:41.815Z,21.30
2019-06-27T05:30:12.041Z,21.30
2019-06-27T05:32:42.489Z,21.20
2019-06-27T05:35:12.488Z,21.20
2019-06-27T05:37:42.593Z,21.20
2019-06-27T05:40:13.198Z,21.20
2019-06-27T05:42:43.242Z,21.20
2019-06-27T05:45:13.479Z,21.10
2019-06-27T05:47:43.574Z,21.00
2019-06-27T05:50:13.812Z,21.00
2019-06-27T05:52:43.941Z,21.00
2019-06-27T05:55:14.079Z,21.00
2019-06-27T05:57:44.117Z,21.00
2019-06-27T06:00:27.507Z,21.00
2019-06-27T06:02:46.687Z,21.00
2019-06-27T06:05:16.781Z,21.10
2019-06-27T06:07:46.800Z,21.10
2019-06-27T06:10:17.411Z,21.00
2019-06-27T06:12:47.536Z,21.00
2019-06-27T06:15:17.712Z,20.90
2019-06-27T06:17:47.727Z,20.90
2019-06-27T06:20:17.822Z,20.90
2019-06-27T06:22:47.805Z,20.70
2019-06-27T06:25:17.935Z,20.60
2019-06-27T06:27:48.072Z,20.60
2019-06-27T06:30:18.485Z,20.60
2019-06-27T06:32:48.454Z,20.60
2019-06-27T06:35:18.610Z,20.60
2019-06-27T06:37:48.724Z,20.50
2019-06-27T06:40:19.039Z,20.50
2019-06-27T06:42:49.126Z,20.50
2019-06-27T06:45:19.516Z,20.50
2019-06-27T06:47:51.283Z,20.50
2019-06-27T06:50:23.532Z,20.60
2019-06-27T06:52:53.220Z,20.60
2019-06-27T06:55:23.231Z,20.60
2019-06-27T06:57:53.273Z,20.70
2019-06-27T07:00:23.614Z,20.60
2019-06-27T07:02:53.810Z,20.70
2019-06-27T07:05:23.914Z,20.80
2019-06-27T07:07:54.483Z,20.80
2019-06-27T07:10:27.777Z,20.80
2019-06-27T07:12:57.689Z,20.80
2019-06-27T07:15:28.914Z,20.90
2019-06-27T07:17:59.223Z,21.00
2019-06-27T07:20:29.589Z,21.00
2019-06-27T07:22:59.694Z,21.00
2019-06-27T07:25:29.803Z,20.90
2019-06-27T07:27:59.938Z,20.80
2019-06-27T07:30:30.198Z,20.80
2019-06-27T07:33:00.480Z,20.80
2019-06-27T07:35:30.674Z,20.80
2019-06-27T07:38:00.722Z,20.80
2019-06-27T07:40:31.081Z,20.80
2019-06-27T07:43:01.143Z,20.90
2019-06-27T07:45:31.334Z,20.90
2019-06-27T07:48:01.714Z,21.00
2019-06-27T07:50:31.812Z,21.00
2019-06-27T07:53:02.081Z,21.00
2019-06-27T07:55:32.157Z,21.00
2019-06-27T07:58:02.470Z,21.00
2019-06-27T08:00:32.638Z,21.00
2019-06-27T08:03:02.667Z,21.00
2019-06-27T08:05:32.998Z,21.00
2019-06-27T08:08:03.160Z,20.90
2019-06-27T08:10:33.165Z,21.00
2019-06-27T08:13:03.400Z,20.90
2019-06-27T08:15:34.613Z,20.90
2019-06-27T08:18:04.763Z,20.90
2019-06-27T08:20:34.882Z,20.90
2019-06-27T08:23:05.434Z,21.00
2019-06-27T08:25:35.736Z,20.90
2019-06-27T08:28:06.061Z,20.90
2019-06-27T08:30:36.513Z,20.90
2019-06-27T08:33:06.766Z,20.90
2019-06-27T08:35:36.893Z,20.90
2019-06-27T08:38:06.895Z,20.90
2019-06-27T08:40:37.108Z,20.90
2019-06-27T08:43:07.409Z,21.00
2019-06-27T08:45:37.528Z,21.10
2019-06-27T08:48:07.609Z,21.10
2019-06-27T08:50:37.673Z,21.10
2019-06-27T08:53:08.193Z,21.20
2019-06-27T08:55:38.343Z,21.20
2019-06-27T08:58:08.618Z,21.30
2019-06-27T09:00:38.819Z,21.40
2019-06-27T09:03:09.048Z,21.50
2019-06-27T09:05:39.361Z,21.50
2019-06-27T09:08:09.614Z,21.70
2019-06-27T09:10:39.820Z,21.80
2019-06-27T09:13:10.235Z,21.90
2019-06-27T09:15:40.423Z,22.00
2019-06-27T09:18:10.508Z,22.00
2019-06-27T09:20:40.723Z,22.00
2019-06-27T09:23:10.891Z,22.00
2019-06-27T09:25:41.068Z,22.10
2019-06-27T09:28:11.421Z,22.20
2019-06-27T09:30:41.712Z,22.30
2019-06-27T09:33:11.785Z,22.40
2019-06-27T09:35:41.918Z,22.50
2019-06-27T09:38:12.189Z,22.60
2019-06-27T09:40:42.288Z,22.60
2019-06-27T09:43:12.719Z,22.70
2019-06-27T09:45:43.125Z,22.70
2019-06-27T09:48:13.359Z,22.70
2019-06-27T09:50:44.653Z,22.80
2019-06-27T09:53:14.755Z,22.80
2019-06-27T09:55:47.390Z,22.80
2019-06-27T09:58:16.672Z,22.90
2019-06-27T10:00:47.963Z,23.10
2019-06-27T10:03:18.096Z,23.20
2019-06-27T10:05:48.150Z,23.30
2019-06-27T10:08:18.313Z,23.20
2019-06-27T10:10:48.706Z,23.20
2019-06-27T10:13:18.982Z,23.20
2019-06-27T10:15:49.267Z,23.20
2019-06-27T10:18:19.349Z,23.20
2019-06-27T10:20:49.405Z,23.40
2019-06-27T10:23:19.500Z,23.50
2019-06-27T10:25:49.765Z,23.70
2019-06-27T10:28:20.298Z,23.70
2019-06-27T10:30:50.319Z,23.50
2019-06-27T10:33:20.428Z,23.50
2019-06-27T10:35:50.548Z,23.50
2019-06-27T10:38:20.696Z,23.60
2019-06-27T10:40:50.916Z,23.50
2019-06-27T10:43:21.052Z,23.60
2019-06-27T10:45:51.241Z,23.70
2019-06-27T10:48:21.301Z,23.80
2019-06-27T10:50:54.567Z,24.00
2019-06-27T10:53:23.066Z,24.10
2019-06-27T10:55:53.170Z,24.30
2019-06-27T10:58:23.328Z,24.40
2019-06-27T11:00:53.446Z,24.50
2019-06-27T11:03:23.720Z,24.50
2019-06-27T11:05:56.970Z,24.40
2019-06-27T11:08:27.055Z,24.40
2019-06-27T11:10:57.545Z,24.40
2019-06-27T11:13:27.723Z,24.40
2019-06-27T11:15:58.527Z,24.50
2019-06-27T11:18:29.941Z,24.50
2019-06-27T11:21:00.037Z,24.40
2019-06-27T11:23:31.364Z,24.40
2019-06-27T11:26:01.616Z,24.40
2019-06-27T11:28:32.308Z,24.60
2019-06-27T11:31:02.529Z,24.70
2019-06-27T11:33:33.303Z,24.80
2019-06-27T11:36:03.637Z,24.90
2019-06-27T11:38:33.817Z,25.00
2019-06-27T11:41:04.107Z,25.00
2019-06-27T11:43:34.134Z,25.10
2019-06-27T11:46:04.317Z,25.20
2019-06-27T11:48:34.424Z,25.30
2019-06-27T11:51:04.607Z,25.40
2019-06-27T11:53:34.646Z,25.50
2019-06-27T11:56:04.890Z,25.40
2019-06-27T11:58:34.908Z,25.30
2019-06-27T12:01:05.140Z,25.20
2019-06-27T12:03:48.430Z,25.30
2019-06-27T12:06:07.033Z,25.40
2019-06-27T12:08:37.494Z,25.50
2019-06-27T12:11:07.587Z,25.70
2019-06-27T12:13:37.668Z,25.80
2019-06-27T12:16:07.701Z,25.90
2019-06-27T12:18:37.871Z,25.90
2019-06-27T12:21:07.991Z,25.90
2019-06-27T12:23:38.065Z,25.80
2019-06-27T12:26:09.486Z,25.90
2019-06-27T12:28:40.168Z,26.00
2019-06-27T12:31:20.537Z,26.00
2019-06-27T12:33:42.778Z,26.10
2019-06-27T12:36:12.958Z,26.10
2019-06-27T12:38:43.100Z,26.10
2019-06-27T12:41:13.537Z,25.90
2019-06-27T12:43:43.911Z,25.60
2019-06-27T12:46:14.080Z,25.60
2019-06-27T12:48:44.199Z,25.60
2019-06-27T12:51:14.297Z,25.50
2019-06-27T12:53:44.450Z,25.60
2019-06-27T12:56:14.798Z,25.80
2019-06-27T12:58:44.818Z,25.90
2019-06-27T13:01:14.931Z,26.00
2019-06-27T13:03:45.033Z,26.00
2019-06-27T13:06:15.042Z,26.00
2019-06-27T13:08:45.248Z,26.00
2019-06-27T13:11:15.257Z,26.00
2019-06-27T13:13:45.486Z,26.00
2019-06-27T13:16:15.509Z,26.00
2019-06-27T13:18:46.948Z,26.10
2019-06-27T13:21:18.550Z,26.20
2019-06-27T13:23:49.153Z,26.20
2019-06-27T13:26:19.589Z,26.20
2019-06-27T13:28:49.781Z,26.20
2019-06-27T13:31:19.891Z,26.20
2019-06-27T13:33:49.967Z,26.20
2019-06-27T13:36:20.026Z,26.30
2019-06-27T13:38:50.180Z,26.30
2019-06-27T13:41:20.441Z,26.30
2019-06-27T13:43:50.702Z,26.30
2019-06-27T13:46:20.779Z,26.30
2019-06-27T13:48:51.184Z,26.20
2019-06-27T13:51:21.543Z,26.30
2019-06-27T13:53:51.927Z,26.20
2019-06-27T13:56:23.326Z,26.10
2019-06-27T13:59:12.867Z,26.00
2019-06-27T14:01:43.014Z,26.10
2019-06-27T14:04:13.151Z,26.10
2019-06-27T14:06:43.414Z,26.20
2019-06-27T14:09:22.888Z,26.10
2019-06-27T14:11:45.235Z,26.00
2019-06-27T14:14:16.279Z,26.00
2019-06-27T14:17:05.584Z,26.10
2019-06-27T14:19:35.659Z,26.20
2019-06-27T14:22:05.860Z,26.30
2019-06-27T14:24:36.099Z,26.30
2019-06-27T14:27:06.300Z,26.20
2019-06-27T14:29:36.714Z,25.90
2019-06-27T14:32:06.901Z,25.90
2019-06-27T14:34:37.075Z,25.90
2019-06-27T14:37:08.245Z,25.90
2019-06-27T14:39:38.543Z,25.90
2019-06-27T14:42:08.748Z,25.80
2019-06-27T14:44:38.856Z,25.90
2019-06-27T14:47:09.060Z,25.90
2019-06-27T14:49:39.232Z,25.90
2019-06-27T14:52:09.592Z,25.90
2019-06-27T14:54:39.696Z,25.80
2019-06-27T14:57:09.831Z,25.60
2019-06-27T14:59:39.892Z,25.50
2019-06-27T15:02:10.056Z,25.50
2019-06-27T15:04:40.405Z,25.40
2019-06-27T15:07:10.822Z,25.40
2019-06-27T15:09:40.919Z,25.40
2019-06-27T15:12:11.054Z,25.40
2019-06-27T15:14:41.142Z,25.30
2019-06-27T15:17:11.432Z,25.40
2019-06-27T15:19:41.811Z,25.40
2019-06-27T15:22:11.965Z,25.40
2019-06-27T15:24:42.291Z,25.20
2019-06-27T15:27:12.505Z,24.90
2019-06-27T15:29:42.652Z,24.80
2019-06-27T15:32:12.875Z,24.90
2019-06-27T15:34:43.100Z,24.90
2019-06-27T15:37:13.587Z,24.90
2019-06-27T15:39:43.657Z,25.00
2019-06-27T15:42:13.824Z,25.10
2019-06-27T15:44:44.188Z,25.20
2019-06-27T15:47:14.369Z,25.20
2019-06-27T15:49:44.448Z,25.30
2019-06-27T15:52:14.554Z,25.20
2019-06-27T15:54:44.848Z,25.20
2019-06-27T15:57:15.069Z,25.40
2019-06-27T15:59:45.353Z,25.40
2019-06-27T16:02:15.805Z,25.20
2019-06-27T16:04:46.042Z,25.00
2019-06-27T16:07:16.127Z,25.00
2019-06-27T16:09:46.480Z,24.80
2019-06-27T16:12:16.903Z,24.60
2019-06-27T16:14:47.342Z,24.40
2019-06-27T16:17:17.612Z,24.30
2019-06-27T16:19:47.976Z,24.20
2019-06-27T16:22:18.378Z,24.20
2019-06-27T16:24:51.340Z,24.10
2019-06-27T16:27:21.729Z,24.00
2019-06-27T16:29:54.520Z,24.00
2019-06-27T16:32:24.705Z,24.10
2019-06-27T16:34:54.914Z,24.00
2019-06-27T16:37:25.284Z,24.10
2019-06-27T16:39:55.510Z,24.20
2019-06-27T16:42:26.016Z,24.20
2019-06-27T16:44:56.289Z,24.30
2019-06-27T16:47:26.749Z,24.20
2019-06-27T16:49:57.295Z,24.10
2019-06-27T16:52:27.713Z,23.90
2019-06-27T16:54:58.056Z,23.80
2019-06-27T16:57:28.159Z,23.80
2019-06-27T16:59:58.394Z,23.80
2019-06-27T17:02:28.690Z,23.80
2019-06-27T17:04:58.994Z,23.90
2019-06-27T17:07:29.288Z,23.80
2019-06-27T17:09:59.593Z,23.90
2019-06-27T17:12:29.642Z,23.80
2019-06-27T17:15:00.135Z,23.80
2019-06-27T17:17:30.248Z,23.70
2019-06-27T17:20:00.570Z,23.50
2019-06-27T17:22:34.448Z,23.30
2019-06-27T17:25:05.118Z,23.20
2019-06-27T17:27:35.321Z,23.20
2019-06-27T17:30:07.786Z,23.20
2019-06-27T17:32:38.159Z,23.10
2019-06-27T17:35:08.654Z,23.00
2019-06-27T17:37:38.871Z,23.00
2019-06-27T17:40:10.245Z,22.80
2019-06-27T17:42:40.540Z,22.70
2019-06-27T17:45:10.817Z,22.70
2019-06-27T17:47:42.227Z,22.60
2019-06-27T17:50:13.043Z,22.40
2019-06-27T17:52:45.889Z,22.30
2019-06-27T17:55:16.584Z,22.20
2019-06-27T17:57:47.501Z,22.20
2019-06-27T18:00:19.303Z,22.10
2019-06-27T18:02:51.887Z,22.00
2019-06-27T18:05:22.349Z,21.90
2019-06-27T18:07:55.880Z,21.80
2019-06-27T18:10:29.585Z,21.80
2019-06-27T18:13:01.684Z,21.90
2019-06-27T18:15:36.781Z,21.70
2019-06-27T18:18:07.349Z,21.60
2019-06-27T18:20:40.582Z,21.50
2019-06-27T18:23:17.562Z,21.40
2019-06-27T18:25:49.479Z,21.40
2019-06-27T18:28:22.097Z,21.40
2019-06-27T18:30:55.321Z,21.40
2019-06-27T18:33:31.905Z,21.40
2019-06-27T18:36:03.217Z,21.10
2019-06-27T18:38:33.757Z,21.10
2019-06-27T18:41:04.379Z,20.90
2019-06-27T18:43:34.679Z,20.90
2019-06-27T18:46:05.193Z,20.90
2019-06-27T18:48:35.548Z,20.80
2019-06-27T18:51:18.405Z,20.60
2019-06-27T18:53:50.936Z,20.60
2019-06-27T18:56:22.985Z,20.50
2019-06-27T18:58:53.294Z,20.50
2019-06-27T19:01:23.679Z,20.30
2019-06-27T19:03:54.015Z,20.30
2019-06-27T19:06:24.319Z,20.40
2019-06-27T19:08:55.722Z,20.30
2019-06-27T19:14:22.430Z,20.20
2019-06-27T19:16:57.640Z,20.10
2019-06-27T19:19:31.781Z,20.00
2019-06-27T19:22:24.231Z,20.00
2019-06-27T19:24:59.809Z,19.90
2019-06-27T19:27:29.983Z,19.90
2019-06-27T19:30:07.220Z,19.90
2019-06-27T19:32:38.242Z,19.90
2019-06-27T19:35:11.864Z,19.90
2019-06-27T19:37:41.982Z,19.90
2019-06-27T19:40:15.137Z,19.90
2019-06-27T19:42:45.379Z,19.90
2019-06-27T19:45:22.139Z,19.90
2019-06-27T19:47:52.748Z,19.80
2019-06-27T19:50:27.432Z,19.80
2019-06-27T19:52:58.368Z,19.70
2019-06-27T19:55:29.328Z,19.70
2019-06-27T19:58:00.834Z,19.70
2019-06-27T20:00:32.850Z,19.60
2019-06-27T20:03:03.594Z,19.60
2019-06-27T20:05:36.791Z,19.60
2019-06-27T20:08:18.593Z,19.60
2019-06-27T20:10:39.596Z,19.60
2019-06-27T20:13:12.075Z,19.60
2019-06-27T20:15:48.582Z,19.60
2019-06-27T20:18:29.507Z,19.60
2019-06-27T20:21:13.381Z,19.50
2019-06-27T20:23:51.661Z,19.50
2019-06-27T20:26:22.597Z,19.40
2019-06-27T20:28:54.982Z,19.30
2019-06-27T20:31:26.440Z,19.30
2019-06-27T20:33:57.259Z,19.20
2019-06-27T20:36:27.589Z,19.10
2019-06-27T20:38:57.927Z,19.10
2019-06-27T20:41:29.412Z,19.10
2019-06-27T20:44:02.067Z,19.00
2019-06-27T20:46:47.252Z,19.00
2019-06-27T20:49:30.866Z,18.90
2019-06-27T20:52:04.233Z,18.90
2019-06-27T20:54:34.385Z,18.80
2019-06-27T20:57:23.638Z,18.80
2019-06-27T20:59:53.991Z,18.70
2019-06-27T21:02:24.367Z,18.70
2019-06-27T21:04:54.777Z,18.60
2019-06-27T21:07:24.957Z,18.60
2019-06-27T21:09:55.011Z,18.60
2019-06-27T21:12:25.138Z,18.60
2019-06-27T21:14:55.174Z,18.60
2019-06-27T21:17:25.416Z,18.60
2019-06-27T21:19:55.532Z,18.60
2019-06-27T21:22:25.772Z,18.60
2019-06-27T21:24:56.124Z,18.60
2019-06-27T21:27:26.199Z,18.60
2019-06-27T21:29:56.463Z,18.50
2019-06-27T21:32:31.394Z,18.50
2019-06-27T21:34:58.617Z,18.40
2019-06-27T21:37:28.790Z,18.50
2019-06-27T21:39:59.875Z,18.40
2019-06-27T21:42:30.130Z,18.40
2019-06-27T21:45:00.335Z,18.30
2019-06-27T21:47:30.391Z,18.30
2019-06-27T21:50:00.618Z,18.20
2019-06-27T21:52:30.708Z,18.20
2019-06-27T21:55:12.401Z,18.20
2019-06-27T21:57:42.529Z,18.20
2019-06-27T22:00:14.807Z,18.20
2019-06-27T22:02:46.657Z,18.20
2019-06-27T22:05:17.436Z,18.20
2019-06-27T22:07:47.737Z,18.10
2019-06-27T22:10:17.984Z,18.00
2019-06-27T22:12:48.211Z,18.00
2019-06-27T22:15:18.515Z,18.00
2019-06-27T22:17:48.747Z,17.80
2019-06-27T22:20:19.572Z,17.80
2019-06-27T22:22:49.845Z,17.70
2019-06-27T22:25:20.221Z,17.70
2019-06-27T22:27:50.251Z,17.60
2019-06-27T22:30:20.833Z,17.50
2019-06-27T22:32:50.967Z,17.50
2019-06-27T22:35:21.200Z,17.50
2019-06-27T22:38:10.286Z,17.40
2019-06-27T22:40:59.426Z,17.40
2019-06-27T22:43:49.065Z,17.30
2019-06-27T22:46:38.187Z,17.30
2019-06-27T22:49:07.630Z,17.30
2019-06-27T22:51:49.392Z,17.30
2019-06-27T22:54:19.938Z,17.30
2019-06-27T22:56:49.986Z,17.30
2019-06-27T22:59:20.103Z,17.30
2019-06-27T23:01:50.370Z,17.30
2019-06-27T23:04:20.552Z,17.30
2019-06-27T23:06:50.611Z,17.30
2019-06-27T23:09:20.588Z,17.20
2019-06-27T23:11:50.751Z,17.20
2019-06-27T23:14:20.760Z,17.10
2019-06-27T23:16:50.916Z,17.10
2019-06-27T23:19:20.953Z,17.10
2019-06-27T23:21:51.096Z,17.10
2019-06-27T23:24:24.169Z,17.10
2019-06-27T23:26:54.128Z,17.00
2019-06-27T23:29:26.871Z,17.00
2019-06-27T23:32:00.014Z,17.00
2019-06-27T23:34:30.073Z,17.00
2019-06-27T23:37:00.181Z,17.00
2019-06-27T23:39:30.211Z,17.00
2019-06-27T23:42:00.275Z,16.90
2019-06-27T23:44:31.321Z,16.90
2019-06-27T23:47:01.543Z,16.90
2019-06-27T23:49:31.528Z,16.90
2019-06-27T23:52:01.553Z,16.90
2019-06-27T23:54:31.911Z,16.90
2019-06-27T23:57:01.929Z,16.90
2019-06-27T23:59:32.123Z,16.90
